createdAt,value
2023-05-16T00:00:35.126Z,78.65
2023-05-16T00:02:03.405Z,78.15
2023-05-16T00:03:37.487Z,78.37
2023-05-16T00:04:59.901Z,78.29
2023-05-16T00:06:29.083Z,77.81
2023-05-16T00:07:58.017Z,78.16
2023-05-16T00:09:19.501Z,77.76
2023-05-16T00:10:46.033Z,77.92
2023-05-16T00:12:08.060Z,77.55
2023-05-16T00:13:42.444Z,77.71
2023-05-16T00:15:14.393Z,77.61
2023-05-16T00:16:38.377Z,77.97
2023-05-16T00:18:15.623Z,78.00
2023-05-16T00:19:37.486Z,77.98
2023-05-16T00:21:11.360Z,78.06
2023-05-16T00:22:44.634Z,77.85
2023-05-16T00:24:17.950Z,78.17
2023-05-16T00:25:47.288Z,78.40
2023-05-16T00:27:09.288Z,78.23
2023-05-16T00:28:30.680Z,78.31
2023-05-16T00:29:52.639Z,78.25
2023-05-16T00:31:14.719Z,78.71
2023-05-16T00:32:38.514Z,78.79
2023-05-16T00:34:01.546Z,79.20
2023-05-16T00:35:25.578Z,79.00
2023-05-16T00:36:54.296Z,79.42
2023-05-16T00:38:16.692Z,79.37
2023-05-16T00:39:40.417Z,79.63
2023-05-16T00:41:02.225Z,79.14
2023-05-16T00:42:46.841Z,79.65
2023-05-16T00:44:21.576Z,79.70
2023-05-16T00:45:53.053Z,79.56
2023-05-16T00:47:26.744Z,79.66
2023-05-16T00:49:00.697Z,80.19
2023-05-16T00:50:24.644Z,79.85
2023-05-16T00:51:46.849Z,80.08
2023-05-16T00:53:11.085Z,80.37
2023-05-16T00:54:33.278Z,80.62
2023-05-16T00:55:54.866Z,80.52
2023-05-16T00:57:17.013Z,80.66
2023-05-16T00:58:38.852Z,80.75
2023-05-16T01:00:00.747Z,80.83
2023-05-16T01:01:22.535Z,80.51
2023-05-16T01:02:51.679Z,81.13
2023-05-16T01:04:15.898Z,81.21
2023-05-16T01:05:37.441Z,80.72
2023-05-16T01:06:59.186Z,80.71
2023-05-16T01:08:21.726Z,80.94
2023-05-16T01:09:51.096Z,80.75
2023-05-16T01:11:13.295Z,80.84
2023-05-16T01:12:34.882Z,80.94
2023-05-16T01:13:56.904Z,80.85
2023-05-16T01:15:18.588Z,80.67
2023-05-16T01:16:40.271Z,80.75
2023-05-16T01:18:02.409Z,80.70
2023-05-16T01:19:26.530Z,80.85
2023-05-16T01:20:55.898Z,80.72
2023-05-16T01:22:21.638Z,80.46
2023-05-16T01:23:43.551Z,80.49
2023-05-16T01:25:26.351Z,80.41
2023-05-16T01:26:48.034Z,80.61
2023-05-16T01:28:23.648Z,80.12
2023-05-16T01:29:48.030Z,80.73
2023-05-16T01:31:33.221Z,80.23
2023-05-16T01:32:59.603Z,79.92
2023-05-16T01:34:35.322Z,79.96
2023-05-16T01:35:57.353Z,80.07
2023-05-16T01:37:30.653Z,80.03
2023-05-16T01:39:01.848Z,79.74
2023-05-16T01:40:40.656Z,79.75
2023-05-16T01:42:23.252Z,79.59
2023-05-16T01:43:59.100Z,79.60
2023-05-16T01:45:44.396Z,79.76
2023-05-16T01:47:18.308Z,79.93
2023-05-16T01:48:52.351Z,80.10
2023-05-16T01:50:16.418Z,79.79
2023-05-16T01:51:51.610Z,79.84
2023-05-16T01:53:13.390Z,79.92
2023-05-16T01:54:51.663Z,80.22
2023-05-16T01:56:13.973Z,79.85
2023-05-16T01:57:49.353Z,80.65
2023-05-16T01:59:13.796Z,80.10
2023-05-16T02:00:37.701Z,80.17
2023-05-16T02:02:22.947Z,80.46
2023-05-16T02:03:49.313Z,80.24
2023-05-16T02:05:34.263Z,80.13
2023-05-16T02:07:16.788Z,80.46
2023-05-16T02:08:39.931Z,80.47
2023-05-16T02:10:19.729Z,80.37
2023-05-16T02:11:51.453Z,80.61
2023-05-16T02:13:36.770Z,80.46
2023-05-16T02:15:10.408Z,80.56
2023-05-16T02:16:45.584Z,80.71
2023-05-16T02:18:26.175Z,80.57
2023-05-16T02:20:15.599Z,81.03
2023-05-16T02:22:00.286Z,80.81
2023-05-16T02:23:31.422Z,80.85
2023-05-16T02:24:54.836Z,81.00
2023-05-16T02:26:16.344Z,80.93
2023-05-16T02:27:52.450Z,80.82
2023-05-16T02:29:33.440Z,80.94
2023-05-16T02:31:18.394Z,80.70
2023-05-16T02:32:52.063Z,80.97
2023-05-16T02:34:34.180Z,80.73
2023-05-16T02:36:06.158Z,81.01
2023-05-16T02:37:41.429Z,80.69
2023-05-16T02:39:04.204Z,81.24
2023-05-16T02:40:30.720Z,80.56
2023-05-16T02:42:08.471Z,80.64
2023-05-16T02:43:53.741Z,80.67
2023-05-16T02:45:22.618Z,81.21
2023-05-16T02:46:46.508Z,80.18
2023-05-16T02:48:22.458Z,80.89
2023-05-16T02:50:01.912Z,80.21
2023-05-16T02:51:23.712Z,80.65
2023-05-16T02:52:49.870Z,80.25
2023-05-16T02:54:25.737Z,80.38
2023-05-16T02:55:51.913Z,80.29
2023-05-16T02:57:25.435Z,80.49
2023-05-16T02:58:49.207Z,80.55
2023-05-16T03:00:18.914Z,80.41
2023-05-16T03:01:54.873Z,80.49
2023-05-16T03:03:36.186Z,80.26
2023-05-16T03:05:17.977Z,80.24
2023-05-16T03:06:47.519Z,80.76
2023-05-16T03:08:23.047Z,80.26
2023-05-16T03:09:47.346Z,80.87
2023-05-16T03:11:40.648Z,80.99
2023-05-16T03:13:14.444Z,80.60
2023-05-16T03:14:39.120Z,80.68
2023-05-16T03:16:03.113Z,80.82
2023-05-16T03:17:38.801Z,80.84
2023-05-16T03:19:24.056Z,80.68
2023-05-16T03:20:59.851Z,80.89
2023-05-16T03:22:45.269Z,80.92
2023-05-16T03:24:30.450Z,80.92
2023-05-16T03:26:17.467Z,81.06
2023-05-16T03:27:51.372Z,81.12
2023-05-16T03:29:26.506Z,81.18
2023-05-16T03:30:50.836Z,80.66
2023-05-16T03:32:36.112Z,81.06
2023-05-16T03:34:09.904Z,80.78
2023-05-16T03:35:43.551Z,80.69
2023-05-16T03:37:18.930Z,80.72
2023-05-16T03:38:43.167Z,80.86
2023-05-16T03:40:18.238Z,81.03
2023-05-16T03:42:03.653Z,80.54
2023-05-16T03:43:40.379Z,80.20
2023-05-16T03:45:07.666Z,80.46
2023-05-16T03:46:52.794Z,80.32
2023-05-16T03:48:26.547Z,80.16
2023-05-16T03:50:00.004Z,80.11
2023-05-16T03:51:45.835Z,80.17
2023-05-16T03:53:22.098Z,80.04
2023-05-16T03:54:51.835Z,80.09
2023-05-16T03:56:27.553Z,80.11
2023-05-16T03:57:57.052Z,79.84
2023-05-16T03:59:32.711Z,79.66
2023-05-16T04:01:04.129Z,79.86
2023-05-16T04:02:37.733Z,79.60
2023-05-16T04:04:02.131Z,79.02
2023-05-16T04:05:34.165Z,79.52
2023-05-16T04:07:27.968Z,79.08
2023-05-16T04:09:00.024Z,78.71
2023-05-16T04:10:33.436Z,78.71
2023-05-16T04:12:06.181Z,78.36
2023-05-16T04:13:39.677Z,78.75
2023-05-16T04:15:25.206Z,78.68
2023-05-16T04:17:11.045Z,78.71
2023-05-16T04:18:52.078Z,78.52
2023-05-16T04:20:45.369Z,78.53
2023-05-16T04:22:26.054Z,78.37
2023-05-16T04:24:02.426Z,78.40
2023-05-16T04:25:42.959Z,78.14
2023-05-16T04:27:09.424Z,78.10
2023-05-16T04:28:35.724Z,77.84
2023-05-16T04:30:08.828Z,78.30
2023-05-16T04:31:40.482Z,78.21
2023-05-16T04:33:25.673Z,77.76
2023-05-16T04:34:59.999Z,78.01
2023-05-16T04:36:29.881Z,77.81
2023-05-16T04:38:05.803Z,77.67
2023-05-16T04:39:39.187Z,77.74
2023-05-16T04:41:03.850Z,77.42
2023-05-16T04:42:30.174Z,77.33
2023-05-16T04:44:06.381Z,77.51
2023-05-16T04:45:30.761Z,77.55
2023-05-16T04:46:53.413Z,77.34
2023-05-16T04:48:20.082Z,77.38
2023-05-16T04:49:53.817Z,77.44
2023-05-16T04:51:27.293Z,77.47
2023-05-16T04:53:00.828Z,77.12
2023-05-16T04:54:34.585Z,77.09
2023-05-16T04:56:11.878Z,77.17
2023-05-16T04:57:47.616Z,77.08
2023-05-16T04:59:22.758Z,76.92
2023-05-16T05:01:04.114Z,76.82
2023-05-16T05:02:37.836Z,77.01
2023-05-16T05:04:01.808Z,76.31
2023-05-16T05:05:23.731Z,76.24
2023-05-16T05:06:55.259Z,76.42
2023-05-16T05:08:19.597Z,76.51
2023-05-16T05:09:54.463Z,75.94
2023-05-16T05:11:30.492Z,75.80
2023-05-16T05:13:04.024Z,75.98
2023-05-16T05:14:37.654Z,75.44
2023-05-16T05:15:59.419Z,75.38
2023-05-16T05:17:23.719Z,75.58
2023-05-16T05:19:08.809Z,75.32
2023-05-16T05:20:42.109Z,75.36
2023-05-16T05:22:08.633Z,75.10
2023-05-16T05:23:33.126Z,75.26
2023-05-16T05:25:18.491Z,75.28
2023-05-16T05:26:44.499Z,75.20
2023-05-16T05:28:13.859Z,74.66
2023-05-16T05:29:49.895Z,74.43
2023-05-16T05:31:11.973Z,73.79
2023-05-16T05:32:53.356Z,74.02
2023-05-16T05:34:25.203Z,74.12
2023-05-16T05:35:56.357Z,73.86
2023-05-16T05:37:41.685Z,73.47
2023-05-16T05:39:26.338Z,73.48
2023-05-16T05:40:49.578Z,73.29
2023-05-16T05:42:12.138Z,73.15
2023-05-16T05:43:46.184Z,73.12
2023-05-16T05:45:22.068Z,73.06
2023-05-16T05:46:57.737Z,73.24
2023-05-16T05:48:41.251Z,73.26
2023-05-16T05:50:14.627Z,72.94
2023-05-16T05:51:55.468Z,72.92
2023-05-16T05:53:40.961Z,72.64
2023-05-16T05:55:02.918Z,72.70
2023-05-16T05:56:38.676Z,72.32
2023-05-16T05:58:04.382Z,72.53
2023-05-16T05:59:39.388Z,72.48
2023-05-16T06:01:24.591Z,72.34
2023-05-16T06:03:13.080Z,72.59
2023-05-16T06:04:42.699Z,72.27
2023-05-16T06:06:20.431Z,71.93
2023-05-16T06:07:42.423Z,71.92
2023-05-16T06:09:27.789Z,71.77
2023-05-16T06:10:54.189Z,71.64
2023-05-16T06:12:27.989Z,71.54
2023-05-16T06:13:52.265Z,71.28
2023-05-16T06:15:38.647Z,70.87
2023-05-16T06:17:03.596Z,71.11
2023-05-16T06:18:32.635Z,71.09
2023-05-16T06:20:06.546Z,71.03
2023-05-16T06:21:31.104Z,71.22
2023-05-16T06:23:04.578Z,70.77
2023-05-16T06:24:38.166Z,70.39
2023-05-16T06:26:23.412Z,70.20
2023-05-16T06:27:57.394Z,70.07
2023-05-16T06:29:31.155Z,69.99
2023-05-16T06:31:00.680Z,70.18
2023-05-16T06:32:45.586Z,70.23
2023-05-16T06:34:30.982Z,69.61
2023-05-16T06:36:12.163Z,69.39
2023-05-16T06:37:34.275Z,69.27
2023-05-16T06:38:56.370Z,69.42
2023-05-16T06:40:31.948Z,69.63
2023-05-16T06:42:08.280Z,70.01
2023-05-16T06:43:53.455Z,69.51
2023-05-16T06:45:38.975Z,69.79
2023-05-16T06:47:00.570Z,69.17
2023-05-16T06:48:30.415Z,68.86
2023-05-16T06:50:03.818Z,68.64
2023-05-16T06:51:28.891Z,68.46
2023-05-16T06:53:14.189Z,68.22
2023-05-16T06:54:36.246Z,68.37
2023-05-16T06:56:10.026Z,67.83
2023-05-16T06:57:32.003Z,67.38
2023-05-16T06:59:06.032Z,67.77
2023-05-16T07:00:34.987Z,67.54
2023-05-16T07:01:56.888Z,68.05
2023-05-16T07:03:26.236Z,67.85
2023-05-16T07:04:50.585Z,67.02
2023-05-16T07:06:26.294Z,66.79
2023-05-16T07:08:08.038Z,66.89
2023-05-16T07:09:39.720Z,67.10
2023-05-16T07:11:13.343Z,66.79
2023-05-16T07:12:51.479Z,66.56
2023-05-16T07:14:15.267Z,66.63
2023-05-16T07:15:37.218Z,66.26
2023-05-16T07:17:01.422Z,65.92
2023-05-16T07:18:35.399Z,65.89
2023-05-16T07:20:17.807Z,66.02
2023-05-16T07:21:47.574Z,65.60
2023-05-16T07:23:09.362Z,64.74
2023-05-16T07:24:38.787Z,64.57
2023-05-16T07:26:03.124Z,64.70
2023-05-16T07:27:36.658Z,64.69
2023-05-16T07:29:24.494Z,64.36
2023-05-16T07:31:00.383Z,64.01
2023-05-16T07:32:31.681Z,64.19
2023-05-16T07:34:05.650Z,64.03
2023-05-16T07:35:39.227Z,64.09
2023-05-16T07:37:13.080Z,64.09
2023-05-16T07:38:39.416Z,64.63
2023-05-16T07:40:15.440Z,64.41
2023-05-16T07:41:46.966Z,64.10
2023-05-16T07:43:34.179Z,63.94
2023-05-16T07:44:57.131Z,64.38
2023-05-16T07:46:21.351Z,63.95
2023-05-16T07:47:50.516Z,63.34
2023-05-16T07:49:12.141Z,63.56
2023-05-16T07:50:46.004Z,63.04
2023-05-16T07:52:10.488Z,62.69
2023-05-16T07:53:32.692Z,62.44
2023-05-16T07:54:58.996Z,61.73
2023-05-16T07:56:23.734Z,61.29
2023-05-16T07:57:56.962Z,60.80
2023-05-16T07:59:42.406Z,60.87
2023-05-16T08:01:16.976Z,61.25
2023-05-16T08:02:50.639Z,61.43
2023-05-16T08:04:24.038Z,61.15
2023-05-16T08:05:53.499Z,61.22
2023-05-16T08:07:20.541Z,61.65
2023-05-16T08:08:42.106Z,61.35
2023-05-16T08:10:13.882Z,62.29
2023-05-16T08:11:36.357Z,61.32
2023-05-16T08:13:09.747Z,60.88
2023-05-16T08:14:32.556Z,60.19
2023-05-16T08:16:08.460Z,60.17
2023-05-16T08:17:41.687Z,60.66
2023-05-16T08:19:31.029Z,59.94
2023-05-16T08:21:17.006Z,60.07
2023-05-16T08:22:52.880Z,60.01
2023-05-16T08:24:29.085Z,60.92
2023-05-16T08:26:00.383Z,61.35
2023-05-16T08:27:45.779Z,60.55
2023-05-16T08:29:19.540Z,59.49
2023-05-16T08:31:00.277Z,59.30
2023-05-16T08:32:34.099Z,59.28
2023-05-16T08:34:13.130Z,59.06
2023-05-16T08:35:35.689Z,59.18
2023-05-16T08:37:06.991Z,58.82
2023-05-16T08:38:36.254Z,58.44
2023-05-16T08:40:03.922Z,58.59
2023-05-16T08:41:40.625Z,57.98
2023-05-16T08:43:05.206Z,58.29
2023-05-16T08:44:29.677Z,58.09
2023-05-16T08:46:05.052Z,57.83
2023-05-16T08:47:50.172Z,57.41
2023-05-16T08:49:12.353Z,57.36
2023-05-16T08:50:45.940Z,57.94
2023-05-16T08:52:31.194Z,57.33
2023-05-16T08:53:52.825Z,57.61
2023-05-16T08:55:29.532Z,58.21
2023-05-16T08:57:14.335Z,56.53
2023-05-16T08:58:59.725Z,56.02
2023-05-16T09:00:23.804Z,56.02
2023-05-16T09:02:00.692Z,56.23
2023-05-16T09:03:29.976Z,56.46
2023-05-16T09:05:03.711Z,55.75
2023-05-16T09:06:40.376Z,55.04
2023-05-16T09:10:07.249Z,55.00
2023-05-16T09:11:47.613Z,54.41
2023-05-16T09:13:20.971Z,55.01
2023-05-16T09:14:45.253Z,54.36
2023-05-16T09:16:07.244Z,53.64
2023-05-16T09:17:44.317Z,54.40
2023-05-16T09:19:34.425Z,53.98
2023-05-16T09:21:01.540Z,54.10
2023-05-16T09:22:23.183Z,54.80
2023-05-16T09:24:08.596Z,54.21
2023-05-16T09:25:43.376Z,53.74
2023-05-16T09:27:09.337Z,53.28
2023-05-16T09:28:31.886Z,53.04
2023-05-16T09:29:58.431Z,53.17
2023-05-16T09:31:33.034Z,52.87
2023-05-16T09:32:57.455Z,51.51
2023-05-16T09:34:21.247Z,51.29
2023-05-16T09:35:45.419Z,51.06
2023-05-16T09:37:07.305Z,50.69
2023-05-16T09:38:41.065Z,50.60
2023-05-16T09:40:03.224Z,51.25
2023-05-16T09:41:25.417Z,50.32
2023-05-16T09:42:54.447Z,49.66
2023-05-16T09:44:16.693Z,49.34
2023-05-16T09:46:01.828Z,49.10
2023-05-16T09:47:35.616Z,50.29
2023-05-16T09:48:57.281Z,50.28
2023-05-16T09:50:30.833Z,50.58
2023-05-16T09:52:04.376Z,50.84
2023-05-16T09:53:27.601Z,50.68
2023-05-16T09:54:57.101Z,51.02
2023-05-16T09:56:19.201Z,50.69
2023-05-16T09:57:41.054Z,50.53
2023-05-16T09:59:03.345Z,50.24
2023-05-16T10:00:27.720Z,50.14
2023-05-16T10:01:49.843Z,50.65
2023-05-16T10:03:12.086Z,49.49
2023-05-16T10:04:41.595Z,49.38
2023-05-16T10:06:07.688Z,48.85
2023-05-16T10:07:29.540Z,48.79
2023-05-16T10:08:53.837Z,48.93
2023-05-16T10:10:22.936Z,48.57
2023-05-16T10:12:07.869Z,48.93
2023-05-16T10:13:41.483Z,49.05
2023-05-16T10:15:05.926Z,48.90
2023-05-16T10:16:29.994Z,48.46
2023-05-16T10:17:53.880Z,49.08
2023-05-16T10:19:17.749Z,49.19
2023-05-16T10:20:40.041Z,48.49
2023-05-16T10:22:04.261Z,49.00
2023-05-16T10:23:26.305Z,49.24
2023-05-16T10:24:50.652Z,49.12
2023-05-16T10:26:14.545Z,49.17
2023-05-16T10:27:47.376Z,49.08
2023-05-16T10:29:16.461Z,48.32
2023-05-16T10:30:40.487Z,49.10
2023-05-16T10:32:02.798Z,48.45
2023-05-16T10:33:27.957Z,48.26
2023-05-16T10:35:01.226Z,48.70
2023-05-16T10:36:23.270Z,47.94
2023-05-16T10:37:45.070Z,47.87
2023-05-16T10:39:18.436Z,47.32
2023-05-16T10:40:47.996Z,48.50
2023-05-16T10:42:18.390Z,47.31
2023-05-16T10:43:50.028Z,47.10
2023-05-16T10:45:11.720Z,47.04
2023-05-16T10:46:47.357Z,47.08
2023-05-16T10:48:11.547Z,48.25
2023-05-16T10:49:35.854Z,49.38
2023-05-16T10:50:57.535Z,49.06
2023-05-16T10:52:22.066Z,47.66
2023-05-16T10:53:46.155Z,47.23
2023-05-16T10:55:07.840Z,47.40
2023-05-16T10:56:29.899Z,47.81
2023-05-16T10:57:51.552Z,48.22
2023-05-16T10:59:13.999Z,48.14
2023-05-16T11:00:35.734Z,48.89
2023-05-16T11:01:57.800Z,47.86
2023-05-16T11:03:31.728Z,46.80
2023-05-16T11:04:55.741Z,45.91
2023-05-16T11:06:18.310Z,44.99
2023-05-16T11:07:42.455Z,43.93
2023-05-16T11:09:10.422Z,44.60
2023-05-16T11:10:44.500Z,43.76
2023-05-16T11:12:06.441Z,44.12
2023-05-16T11:13:57.117Z,44.23
2023-05-16T11:15:19.475Z,43.26
2023-05-16T11:16:44.237Z,42.68
2023-05-16T11:18:06.652Z,43.19
2023-05-16T11:19:28.067Z,43.01
2023-05-16T11:20:59.572Z,43.55
2023-05-16T11:22:24.235Z,43.28
2023-05-16T11:23:48.932Z,42.83
2023-05-16T11:25:10.920Z,43.01
2023-05-16T11:26:35.136Z,43.86
2023-05-16T11:27:56.650Z,43.25
2023-05-16T11:29:18.479Z,43.31
2023-05-16T11:30:40.612Z,43.64
2023-05-16T11:32:06.552Z,44.05
2023-05-16T11:33:36.583Z,44.98
2023-05-16T11:35:00.239Z,45.49
2023-05-16T11:36:25.551Z,45.88
2023-05-16T11:37:47.306Z,45.00
2023-05-16T11:39:12.577Z,44.99
2023-05-16T11:40:34.949Z,44.13
2023-05-16T11:41:58.741Z,43.99
2023-05-16T11:43:27.942Z,43.62
2023-05-16T11:44:57.980Z,43.33
2023-05-16T11:46:19.833Z,43.91
2023-05-16T11:47:41.734Z,44.55
2023-05-16T11:49:03.207Z,44.93
2023-05-16T11:50:25.020Z,44.96
2023-05-16T11:51:58.269Z,44.41
2023-05-16T11:53:22.595Z,44.58
2023-05-16T11:54:44.582Z,44.13
2023-05-16T11:56:08.953Z,44.84
2023-05-16T11:57:32.840Z,44.73
2023-05-16T11:58:54.313Z,45.43
2023-05-16T12:00:16.628Z,45.57
2023-05-16T12:01:43.394Z,45.87
2023-05-16T12:03:05.923Z,46.16
2023-05-16T12:04:28.519Z,46.80
2023-05-16T12:06:09.692Z,46.02
2023-05-16T12:07:40.936Z,46.45
2023-05-16T12:09:09.932Z,46.75
2023-05-16T12:10:34.805Z,47.43
2023-05-16T12:11:59.156Z,47.77
2023-05-16T12:13:30.248Z,48.31
2023-05-16T12:14:54.466Z,48.29
2023-05-16T12:16:16.568Z,48.51
2023-05-16T12:17:52.205Z,49.29
2023-05-16T12:19:26.093Z,48.82
2023-05-16T12:20:49.947Z,48.47
2023-05-16T12:22:14.560Z,48.10
2023-05-16T12:23:48.328Z,47.92
2023-05-16T12:25:21.583Z,48.04
2023-05-16T12:26:45.758Z,48.35
2023-05-16T12:28:21.647Z,48.57
2023-05-16T12:29:57.209Z,48.77
2023-05-16T12:31:31.025Z,48.22
2023-05-16T12:32:56.543Z,48.46
2023-05-16T12:34:33.303Z,47.81
2023-05-16T12:35:55.282Z,48.29
2023-05-16T12:37:16.928Z,48.03
2023-05-16T12:38:53.046Z,47.63
2023-05-16T12:40:17.135Z,47.68
2023-05-16T12:41:50.940Z,46.96
2023-05-16T12:43:13.007Z,46.93
2023-05-16T12:44:35.711Z,47.24
2023-05-16T12:46:00.122Z,47.18
2023-05-16T12:47:29.473Z,46.96
2023-05-16T12:48:58.853Z,46.73
2023-05-16T12:50:20.255Z,46.62
2023-05-16T12:51:44.045Z,46.40
2023-05-16T12:53:05.468Z,45.58
2023-05-16T12:54:27.219Z,45.59
2023-05-16T12:55:49.379Z,45.19
2023-05-16T12:57:10.966Z,45.79
2023-05-16T12:58:35.358Z,45.11
2023-05-16T12:59:57.136Z,45.21
2023-05-16T13:01:21.622Z,45.69
2023-05-16T13:02:46.010Z,45.57
2023-05-16T13:04:15.208Z,45.41
2023-05-16T13:05:39.732Z,45.41
2023-05-16T13:07:11.129Z,45.73
2023-05-16T13:08:32.933Z,45.69
2023-05-16T13:09:54.738Z,45.99
2023-05-16T13:11:16.336Z,45.18
2023-05-16T13:12:52.228Z,44.21
2023-05-16T13:14:16.611Z,45.81
2023-05-16T13:15:38.517Z,44.59
2023-05-16T13:17:04.862Z,44.08
2023-05-16T13:18:29.137Z,44.24
2023-05-16T13:19:53.448Z,44.34
2023-05-16T13:21:24.985Z,43.18
2023-05-16T13:22:48.885Z,43.52
2023-05-16T13:24:22.262Z,43.63
2023-05-16T13:25:49.078Z,43.68
2023-05-16T13:27:11.325Z,44.17
2023-05-16T13:28:36.344Z,44.44
2023-05-16T13:30:00.368Z,44.92
2023-05-16T13:31:34.129Z,44.15
2023-05-16T13:33:03.649Z,44.36
2023-05-16T13:34:27.550Z,44.48
2023-05-16T13:35:49.138Z,43.79
2023-05-16T13:37:18.436Z,44.27
2023-05-16T13:38:43.185Z,44.31
2023-05-16T13:40:05.203Z,45.08
2023-05-16T13:41:30.180Z,45.26
2023-05-16T13:42:52.206Z,45.06
2023-05-16T13:44:17.072Z,45.71
2023-05-16T13:45:50.907Z,45.71
2023-05-16T13:47:12.557Z,45.47
2023-05-16T13:48:45.975Z,46.21
2023-05-16T13:50:10.433Z,46.21
2023-05-16T13:51:35.092Z,46.24
2023-05-16T13:53:04.384Z,46.63
2023-05-16T13:54:33.633Z,46.59
2023-05-16T13:55:57.976Z,46.67
2023-05-16T13:57:27.817Z,45.60
2023-05-16T13:59:01.102Z,45.52
2023-05-16T14:00:43.329Z,45.26
2023-05-16T14:02:06.823Z,45.70
2023-05-16T14:03:33.722Z,45.73
2023-05-16T14:05:07.364Z,45.38
2023-05-16T14:06:29.379Z,46.46
2023-05-16T14:07:53.996Z,46.19
2023-05-16T14:09:16.869Z,46.31
2023-05-16T14:10:38.863Z,46.90
2023-05-16T14:12:13.307Z,47.20
2023-05-16T14:13:35.482Z,47.19
2023-05-16T14:15:02.626Z,47.47
2023-05-16T14:16:39.933Z,47.17
2023-05-16T14:18:13.429Z,47.48
2023-05-16T14:19:36.431Z,47.49
2023-05-16T14:20:58.813Z,46.66
2023-05-16T14:22:20.035Z,46.90
2023-05-16T14:23:44.399Z,46.98
2023-05-16T14:25:08.636Z,47.13
2023-05-16T14:26:32.425Z,47.04
2023-05-16T14:27:53.981Z,47.15
2023-05-16T14:29:15.985Z,46.51
2023-05-16T14:30:37.825Z,46.52
2023-05-16T14:32:08.976Z,47.32
2023-05-16T14:33:33.305Z,47.59
2023-05-16T14:34:57.316Z,47.55
2023-05-16T14:36:18.980Z,47.60
2023-05-16T14:37:48.620Z,46.68
2023-05-16T14:39:21.675Z,46.83
2023-05-16T14:40:43.474Z,46.42
2023-05-16T14:42:08.250Z,46.21
2023-05-16T14:43:32.940Z,46.51
2023-05-16T14:44:54.633Z,46.40
2023-05-16T14:46:18.443Z,46.22
2023-05-16T14:47:55.090Z,46.76
2023-05-16T14:49:16.972Z,46.13
2023-05-16T14:50:38.626Z,46.02
2023-05-16T14:52:00.540Z,45.94
2023-05-16T14:53:34.378Z,45.77
2023-05-16T14:54:56.213Z,45.51
2023-05-16T14:56:20.336Z,45.26
2023-05-16T14:57:45.267Z,44.43
2023-05-16T14:59:09.722Z,44.81
2023-05-16T15:00:43.171Z,45.38
2023-05-16T15:02:04.722Z,43.99
2023-05-16T15:03:33.623Z,43.98
2023-05-16T15:05:00.137Z,43.82
2023-05-16T15:06:31.683Z,43.88
2023-05-16T15:07:58.550Z,43.85
2023-05-16T15:09:20.690Z,44.44
2023-05-16T15:10:49.833Z,44.77
2023-05-16T15:12:33.070Z,44.29
2023-05-16T15:13:54.612Z,43.28
2023-05-16T15:15:16.634Z,43.90
2023-05-16T15:16:50.925Z,44.37
2023-05-16T15:18:24.061Z,44.63
2023-05-16T15:19:57.900Z,44.94
2023-05-16T15:21:22.033Z,45.70
2023-05-16T15:22:58.274Z,47.15
2023-05-16T15:24:31.707Z,46.83
2023-05-16T15:26:05.695Z,45.51
2023-05-16T15:27:50.955Z,45.05
2023-05-16T15:29:12.716Z,44.61
2023-05-16T15:30:46.682Z,44.71
2023-05-16T15:32:11.254Z,44.78
2023-05-16T15:33:48.704Z,44.75
2023-05-16T15:35:12.948Z,44.37
2023-05-16T15:36:42.459Z,44.41
2023-05-16T15:38:08.729Z,44.62
2023-05-16T15:39:32.773Z,44.94
2023-05-16T15:41:22.459Z,45.15
2023-05-16T15:42:50.706Z,45.35
2023-05-16T15:44:19.878Z,45.17
2023-05-16T15:45:58.858Z,45.66
2023-05-16T15:47:28.290Z,46.54
2023-05-16T15:48:52.502Z,46.52
2023-05-16T15:50:38.313Z,46.72
2023-05-16T15:52:10.217Z,47.07
2023-05-16T15:53:51.060Z,47.17
2023-05-16T15:55:19.872Z,47.43
2023-05-16T15:56:53.506Z,47.03
2023-05-16T15:58:15.076Z,47.66
2023-05-16T15:59:41.614Z,47.58
2023-05-16T16:01:12.937Z,47.50
2023-05-16T16:02:56.191Z,48.37
2023-05-16T16:04:33.245Z,48.41
2023-05-16T16:06:02.557Z,48.41
2023-05-16T16:07:43.761Z,48.92
2023-05-16T16:09:15.432Z,49.56
2023-05-16T16:10:50.300Z,49.69
2023-05-16T16:12:32.968Z,49.46
2023-05-16T16:14:08.493Z,50.00
2023-05-16T16:15:42.342Z,50.08
2023-05-16T16:17:19.795Z,50.42
2023-05-16T16:18:53.333Z,50.75
2023-05-16T16:20:26.616Z,51.10
2023-05-16T16:22:00.725Z,51.38
2023-05-16T16:23:31.756Z,51.18
2023-05-16T16:24:56.262Z,51.53
2023-05-16T16:26:29.759Z,51.41
2023-05-16T16:28:01.282Z,51.80
2023-05-16T16:29:37.722Z,51.94
2023-05-16T16:31:22.922Z,52.53
2023-05-16T16:32:56.542Z,52.95
2023-05-16T16:34:29.995Z,52.97
2023-05-16T16:35:59.275Z,53.34
2023-05-16T16:37:41.660Z,53.25
2023-05-16T16:39:05.672Z,53.23
2023-05-16T16:40:50.912Z,53.73
2023-05-16T16:42:31.334Z,53.83
2023-05-16T16:43:53.250Z,54.26
2023-05-16T16:45:29.928Z,54.25
2023-05-16T16:47:04.392Z,54.36
2023-05-16T16:48:47.031Z,53.66
2023-05-16T16:50:22.863Z,54.20
2023-05-16T16:51:56.233Z,54.10
2023-05-16T16:53:41.625Z,53.91
2023-05-16T16:55:22.357Z,54.05
2023-05-16T16:56:58.476Z,54.67
2023-05-16T16:58:27.459Z,54.45
2023-05-16T16:59:49.289Z,54.60
2023-05-16T17:01:30.061Z,54.70
2023-05-16T17:03:12.685Z,54.77
2023-05-16T17:04:48.753Z,55.36
2023-05-16T17:06:24.730Z,55.10
2023-05-16T17:07:58.729Z,55.31
2023-05-16T17:09:43.788Z,55.42
2023-05-16T17:11:07.710Z,55.60
2023-05-16T17:12:48.847Z,56.04
2023-05-16T17:14:12.597Z,55.85
2023-05-16T17:15:47.194Z,55.85
2023-05-16T17:17:28.730Z,55.91
2023-05-16T17:18:53.256Z,56.07
2023-05-16T17:20:29.039Z,56.10
2023-05-16T17:22:02.670Z,56.58
2023-05-16T17:23:26.326Z,56.55
2023-05-16T17:24:50.581Z,56.52
2023-05-16T17:26:13.489Z,56.82
2023-05-16T17:27:49.002Z,57.00
2023-05-16T17:29:26.796Z,57.10
2023-05-16T17:31:00.988Z,57.19
2023-05-16T17:32:41.786Z,57.03
2023-05-16T17:34:12.787Z,57.40
2023-05-16T17:35:53.772Z,57.58
2023-05-16T17:37:23.324Z,57.41
2023-05-16T17:38:54.454Z,57.67
2023-05-16T17:40:17.757Z,57.45
2023-05-16T17:41:47.288Z,57.44
2023-05-16T17:43:16.005Z,57.80
2023-05-16T17:44:59.069Z,57.86
2023-05-16T17:46:21.584Z,58.34
2023-05-16T17:47:43.760Z,58.33
2023-05-16T17:49:13.206Z,58.18
2023-05-16T17:50:46.774Z,58.42
2023-05-16T17:52:23.081Z,58.65
2023-05-16T17:53:45.269Z,58.88
2023-05-16T17:55:09.060Z,58.74
2023-05-16T17:56:31.255Z,58.65
2023-05-16T17:57:53.136Z,58.78
2023-05-16T17:59:17.089Z,58.97
2023-05-16T18:00:50.651Z,59.30
2023-05-16T18:02:38.154Z,59.81
2023-05-16T18:04:01.335Z,59.98
2023-05-16T18:05:23.372Z,60.14
2023-05-16T18:06:56.883Z,60.10
2023-05-16T18:08:32.305Z,60.06
2023-05-16T18:10:13.262Z,59.90
2023-05-16T18:11:47.044Z,60.18
2023-05-16T18:13:08.807Z,59.86
2023-05-16T18:14:45.787Z,60.11
2023-05-16T18:16:10.427Z,60.70
2023-05-16T18:17:34.584Z,61.04
2023-05-16T18:19:16.534Z,61.29
2023-05-16T18:20:48.400Z,61.39
2023-05-16T18:22:23.544Z,61.50
2023-05-16T18:23:59.545Z,62.01
2023-05-16T18:25:23.240Z,62.04
2023-05-16T18:26:48.285Z,62.50
2023-05-16T18:28:19.421Z,62.66
2023-05-16T18:29:59.967Z,62.92
2023-05-16T18:31:33.757Z,63.40
2023-05-16T18:32:55.750Z,63.60
2023-05-16T18:34:29.057Z,63.85
2023-05-16T18:36:14.552Z,64.30
2023-05-16T18:37:39.068Z,64.50
2023-05-16T18:39:22.197Z,64.49
2023-05-16T18:40:48.095Z,65.10
2023-05-16T18:42:21.271Z,65.13
2023-05-16T18:43:43.477Z,65.25
2023-05-16T18:45:07.586Z,65.51
2023-05-16T18:46:29.725Z,65.69
2023-05-16T18:47:54.428Z,65.77
2023-05-16T18:49:39.616Z,65.97
2023-05-16T18:51:12.640Z,66.24
2023-05-16T18:52:58.046Z,66.43
2023-05-16T18:54:34.111Z,66.31
2023-05-16T18:55:58.770Z,66.62
2023-05-16T18:57:39.616Z,66.22
2023-05-16T18:59:13.187Z,66.71
2023-05-16T19:00:37.386Z,66.98
2023-05-16T19:02:01.787Z,67.42
2023-05-16T19:03:35.840Z,68.00
2023-05-16T19:05:09.655Z,67.72
2023-05-16T19:06:34.491Z,67.73
2023-05-16T19:07:58.496Z,67.69
2023-05-16T19:09:30.533Z,67.61
2023-05-16T19:11:06.877Z,67.87
2023-05-16T19:12:37.829Z,68.55
2023-05-16T19:14:11.528Z,68.85
2023-05-16T19:15:35.669Z,68.82
2023-05-16T19:17:01.765Z,68.93
2023-05-16T19:18:37.170Z,69.09
2023-05-16T19:20:30.638Z,69.37
2023-05-16T19:21:55.632Z,69.55
2023-05-16T19:23:19.664Z,69.41
2023-05-16T19:24:53.179Z,69.41
2023-05-16T19:26:28.472Z,68.91